createdAt,value
2023-05-17T00:01:46.004Z,1.00
2023-05-17T00:04:13.241Z,1.00
2023-05-17T00:06:39.974Z,1.00
2023-05-17T00:09:06.634Z,1.00
2023-05-17T00:11:33.317Z,1.00
2023-05-17T00:13:59.983Z,1.00
2023-05-17T00:16:26.670Z,1.00
2023-05-17T00:18:53.507Z,1.00
2023-05-17T00:21:20.417Z,1.00
2023-05-17T00:23:47.062Z,1.00
2023-05-17T00:26:13.958Z,18.10
2023-05-17T00:28:40.708Z,31.30
2023-05-17T00:31:07.394Z,15.60
2023-05-17T00:33:34.035Z,11.70
2023-05-17T00:36:00.694Z,32.50
2023-05-17T00:38:27.371Z,61.10
2023-05-17T00:40:54.344Z,81.40
2023-05-17T00:43:20.995Z,99.90
2023-05-17T00:45:49.344Z,99.90
2023-05-17T00:48:16.190Z,99.90
2023-05-17T00:50:42.990Z,99.90
2023-05-17T00:53:09.635Z,99.90
2023-05-17T00:55:36.275Z,99.90
2023-05-17T00:58:03.048Z,99.90
2023-05-17T01:00:29.711Z,99.90
2023-05-17T01:02:56.458Z,99.90
2023-05-17T01:05:23.191Z,99.90
2023-05-17T01:07:49.973Z,99.90
2023-05-17T01:10:16.621Z,99.90
2023-05-17T01:13:10.223Z,99.90
2023-05-17T01:15:45.714Z,99.90
2023-05-17T01:18:22.049Z,99.90
2023-05-17T01:20:48.842Z,1.00
2023-05-17T01:23:40.051Z,1.00
2023-05-17T01:26:22.266Z,1.00
2023-05-17T01:28:53.586Z,1.00
2023-05-17T01:31:20.705Z,1.00
2023-05-17T01:33:47.501Z,1.00
2023-05-17T01:36:14.287Z,1.00
2023-05-17T01:38:41.117Z,58.10
2023-05-17T01:41:30.718Z,99.90
2023-05-17T01:44:10.660Z,99.90
2023-05-17T01:46:41.649Z,1.00
2023-05-17T01:49:17.556Z,1.00
2023-05-17T01:52:18.641Z,1.00
2023-05-17T01:55:08.254Z,1.00
2023-05-17T01:57:36.665Z,1.00
2023-05-17T02:00:06.359Z,1.00
2023-05-17T02:02:33.074Z,1.00
2023-05-17T02:04:59.814Z,1.00
2023-05-17T02:07:26.496Z,1.00
2023-05-17T02:09:53.163Z,1.00
2023-05-17T02:12:19.816Z,1.00
2023-05-17T02:14:46.486Z,1.00
2023-05-17T02:17:13.388Z,99.90
2023-05-17T02:19:40.071Z,99.90
2023-05-17T02:22:06.729Z,99.90
2023-05-17T02:24:33.376Z,99.90
2023-05-17T02:27:00.202Z,99.90
2023-05-17T02:29:26.870Z,99.90
2023-05-17T02:31:53.507Z,99.90
2023-05-17T02:34:20.162Z,99.90
2023-05-17T02:36:46.913Z,99.90
2023-05-17T02:39:13.584Z,99.90
2023-05-17T02:41:40.239Z,1.00
2023-05-17T02:44:06.889Z,1.00
2023-05-17T02:46:33.752Z,1.00
2023-05-17T02:49:00.724Z,99.90
2023-05-17T02:51:27.377Z,99.90
2023-05-17T02:53:54.009Z,99.90
2023-05-17T02:56:20.652Z,99.90
2023-05-17T02:58:47.283Z,99.90
2023-05-17T03:01:13.926Z,99.90
2023-05-17T03:03:40.682Z,99.90
2023-05-17T03:06:07.693Z,99.90
2023-05-17T03:08:34.330Z,99.90
2023-05-17T03:11:01.484Z,1.00
2023-05-17T03:13:28.132Z,1.00
2023-05-17T03:15:54.790Z,1.00
2023-05-17T03:18:21.598Z,1.40
2023-05-17T03:20:48.307Z,99.90
2023-05-17T03:23:14.947Z,99.90
2023-05-17T03:25:41.618Z,99.90
2023-05-17T03:28:08.301Z,99.90
2023-05-17T03:30:35.009Z,99.90
2023-05-17T03:33:01.790Z,99.90
2023-05-17T03:35:28.788Z,99.90
2023-05-17T03:37:55.648Z,99.90
2023-05-17T03:40:22.582Z,99.90
2023-05-17T03:42:49.257Z,99.90
2023-05-17T03:45:16.504Z,99.90
2023-05-17T03:47:45.255Z,99.90
2023-05-17T03:50:11.966Z,99.90
2023-05-17T03:52:38.660Z,99.90
2023-05-17T03:55:05.932Z,99.90
2023-05-17T03:57:32.613Z,99.90
2023-05-17T03:59:59.285Z,99.90
2023-05-17T04:02:26.194Z,99.90
2023-05-17T04:04:55.883Z,99.90
2023-05-17T04:07:22.621Z,99.90
2023-05-17T04:09:49.380Z,99.90
2023-05-17T04:12:16.420Z,42.10
2023-05-17T04:14:43.069Z,99.90
2023-05-17T04:17:09.761Z,1.00
2023-05-17T04:19:36.427Z,99.90
2023-05-17T04:22:03.128Z,1.00
2023-05-17T04:24:29.943Z,99.90
2023-05-17T04:26:56.945Z,1.00
2023-05-17T04:29:23.604Z,20.10
2023-05-17T04:31:50.756Z,44.40
2023-05-17T04:34:17.470Z,33.20
2023-05-17T04:36:44.186Z,52.00
2023-05-17T04:39:10.899Z,99.90
2023-05-17T04:41:37.788Z,54.80
2023-05-17T04:44:05.705Z,1.00
2023-05-17T04:46:32.476Z,1.00
2023-05-17T04:48:59.263Z,1.00
2023-05-17T04:51:27.022Z,31.50
2023-05-17T04:53:53.715Z,1.00
2023-05-17T04:56:20.489Z,1.00
2023-05-17T04:58:47.155Z,1.00
2023-05-17T05:01:13.849Z,1.00
2023-05-17T05:03:40.674Z,1.00
2023-05-17T05:06:07.476Z,1.00
2023-05-17T05:08:34.564Z,1.00
2023-05-17T05:11:01.231Z,1.00
2023-05-17T05:13:27.898Z,1.00
2023-05-17T05:15:54.566Z,1.00
2023-05-17T05:18:21.409Z,1.00
2023-05-17T05:20:48.808Z,1.00
2023-05-17T05:23:15.470Z,1.00
2023-05-17T05:25:43.592Z,99.90
2023-05-17T05:28:11.177Z,99.90
2023-05-17T05:30:37.872Z,99.90
2023-05-17T05:33:05.008Z,99.90
2023-05-17T05:35:31.859Z,5.40
2023-05-17T05:37:59.252Z,1.00
2023-05-17T05:40:26.197Z,1.00
2023-05-17T05:42:53.473Z,1.00
2023-05-17T05:45:21.637Z,1.00
2023-05-17T05:47:48.458Z,1.00
2023-05-17T05:50:15.207Z,1.00
2023-05-17T05:52:41.855Z,1.00
2023-05-17T05:55:08.877Z,1.00
2023-05-17T05:57:35.901Z,1.00
2023-05-17T06:00:02.953Z,99.90
2023-05-17T06:02:30.098Z,99.90
2023-05-17T06:04:56.820Z,99.90
2023-05-17T06:07:23.552Z,99.90
2023-05-17T06:09:50.371Z,99.90
2023-05-17T06:12:17.797Z,99.90
2023-05-17T06:14:44.465Z,99.90
2023-05-17T06:17:11.099Z,99.90
2023-05-17T06:19:37.844Z,99.90
2023-05-17T06:22:04.821Z,99.90
2023-05-17T06:24:33.174Z,99.90
2023-05-17T06:27:00.051Z,99.90
2023-05-17T06:29:26.690Z,99.90
2023-05-17T06:31:53.646Z,99.90
2023-05-17T06:34:20.393Z,99.90
2023-05-17T06:36:47.039Z,99.90
2023-05-17T06:39:13.673Z,99.90
2023-05-17T06:41:40.384Z,99.90
2023-05-17T06:44:07.146Z,99.90
2023-05-17T06:46:33.836Z,99.90
2023-05-17T06:49:00.630Z,99.90
2023-05-17T06:51:27.468Z,99.90
2023-05-17T06:53:54.113Z,99.90
2023-05-17T06:56:21.452Z,99.90
2023-05-17T06:58:48.093Z,99.90
2023-05-17T07:01:14.743Z,99.90
2023-05-17T07:03:41.525Z,99.90
2023-05-17T07:06:08.291Z,99.90
2023-05-17T07:08:34.963Z,99.90
2023-05-17T07:11:03.026Z,99.90
2023-05-17T07:13:29.931Z,99.90
2023-05-17T07:15:56.592Z,99.90
2023-05-17T07:18:23.281Z,99.90
2023-05-17T07:20:49.954Z,99.90
2023-05-17T07:23:16.810Z,99.90
2023-05-17T07:25:43.495Z,99.90
2023-05-17T07:28:10.170Z,99.90
2023-05-17T07:30:37.840Z,99.90
2023-05-17T07:33:04.552Z,99.90
2023-05-17T07:35:31.528Z,99.90
2023-05-17T07:37:59.372Z,99.90
2023-05-17T07:40:26.047Z,99.90
2023-05-17T07:42:53.114Z,99.90
2023-05-17T07:45:19.836Z,99.90
2023-05-17T07:47:46.645Z,99.90
2023-05-17T07:50:13.669Z,99.90
2023-05-17T07:52:40.415Z,99.90
2023-05-17T07:55:07.835Z,99.90
2023-05-17T07:57:34.478Z,99.90
2023-05-17T08:00:01.146Z,99.90
2023-05-17T08:02:27.833Z,99.90
2023-05-17T08:04:54.582Z,99.90
2023-05-17T08:07:21.345Z,99.90
2023-05-17T08:09:48.093Z,99.90
2023-05-17T08:12:14.791Z,99.90
2023-05-17T08:14:41.430Z,99.90
2023-05-17T08:17:10.467Z,99.90
2023-05-17T08:19:37.398Z,99.90
2023-05-17T08:22:04.331Z,99.90
2023-05-17T08:24:30.997Z,99.90
2023-05-17T08:26:58.488Z,99.90
2023-05-17T08:29:25.137Z,99.90
2023-05-17T08:31:52.500Z,99.90
2023-05-17T08:34:19.155Z,99.90
2023-05-17T08:36:45.840Z,99.90
2023-05-17T08:39:12.963Z,99.90
2023-05-17T08:41:39.811Z,99.90
2023-05-17T08:44:06.538Z,99.90
2023-05-17T08:46:33.743Z,99.90
2023-05-17T08:49:01.935Z,99.90
2023-05-17T08:51:28.874Z,99.90
2023-05-17T08:53:56.033Z,99.90
2023-05-17T08:56:23.220Z,99.90
2023-05-17T08:58:57.168Z,99.90
2023-05-17T09:01:26.438Z,99.90
2023-05-17T09:03:53.760Z,99.90
2023-05-17T09:06:21.486Z,99.90
2023-05-17T09:08:50.873Z,99.90
2023-05-17T09:11:31.262Z,99.90
2023-05-17T09:14:01.927Z,99.90
2023-05-17T09:16:29.729Z,99.90
2023-05-17T09:18:57.059Z,99.90
2023-05-17T09:21:24.102Z,99.90
2023-05-17T09:24:05.654Z,99.90
2023-05-17T09:26:41.869Z,99.90
2023-05-17T09:29:12.337Z,99.90
2023-05-17T09:31:40.176Z,99.90
2023-05-17T09:34:09.697Z,99.90
2023-05-17T09:36:37.362Z,99.90
2023-05-17T09:39:10.608Z,99.90
2023-05-17T09:41:47.653Z,99.90
2023-05-17T09:44:15.240Z,99.90
2023-05-17T09:46:46.139Z,99.90
2023-05-17T09:49:13.331Z,99.90
2023-05-17T09:51:44.224Z,99.90
2023-05-17T09:54:11.149Z,99.90
2023-05-17T09:56:37.959Z,99.90
2023-05-17T09:59:05.103Z,99.90
2023-05-17T10:01:31.926Z,99.90
2023-05-17T10:04:02.912Z,99.90
2023-05-17T10:06:44.736Z,99.90
2023-05-17T10:09:15.514Z,99.90
2023-05-17T10:11:44.127Z,99.90
2023-05-17T10:14:18.626Z,99.90
2023-05-17T10:16:45.630Z,99.90
2023-05-17T10:19:12.479Z,99.90
2023-05-17T10:21:39.404Z,99.90
2023-05-17T10:24:06.210Z,99.90
2023-05-17T10:26:32.895Z,99.90
2023-05-17T10:29:01.343Z,99.90
2023-05-17T10:31:29.591Z,99.90
2023-05-17T10:33:57.078Z,99.90
2023-05-17T10:36:24.322Z,99.90
2023-05-17T10:38:51.816Z,99.90
2023-05-17T10:41:19.826Z,99.90
2023-05-17T10:43:46.627Z,99.90
2023-05-17T10:46:16.911Z,99.90
2023-05-17T10:48:44.329Z,99.90
2023-05-17T10:51:11.185Z,99.90
2023-05-17T10:54:02.985Z,99.90
2023-05-17T10:56:32.827Z,99.90
2023-05-17T10:59:19.809Z,99.90
2023-05-17T11:02:06.164Z,99.90
2023-05-17T11:04:39.420Z,99.90
2023-05-17T11:07:25.020Z,99.90
2023-05-17T11:09:52.484Z,99.90
2023-05-17T11:12:38.460Z,99.90
2023-05-17T11:15:08.747Z,99.90
2023-05-17T11:17:42.526Z,99.90
2023-05-17T11:20:13.840Z,99.90
2023-05-17T11:22:44.341Z,99.90
2023-05-17T11:25:13.186Z,99.90
2023-05-17T11:27:47.079Z,99.90
2023-05-17T11:30:24.652Z,99.90
2023-05-17T11:33:13.573Z,99.90
2023-05-17T11:35:47.952Z,99.90
2023-05-17T11:38:20.180Z,99.90
2023-05-17T11:40:47.688Z,99.90
2023-05-17T11:43:22.743Z,99.90
2023-05-17T11:45:52.817Z,99.90
2023-05-17T11:48:24.305Z,99.90
2023-05-17T11:50:52.042Z,99.90
2023-05-17T11:53:18.872Z,99.90
2023-05-17T11:55:50.232Z,99.90
2023-05-17T11:58:20.901Z,99.90
2023-05-17T12:00:58.428Z,99.90
2023-05-17T12:03:27.208Z,99.90
2023-05-17T12:06:08.132Z,99.90
2023-05-17T12:08:35.782Z,99.90
2023-05-17T12:11:02.825Z,99.90
2023-05-17T12:13:30.383Z,99.90
2023-05-17T12:16:01.223Z,99.90
2023-05-17T12:18:38.621Z,99.90
2023-05-17T12:21:06.203Z,99.90
2023-05-17T12:23:34.156Z,99.90
2023-05-17T12:26:04.483Z,99.90
2023-05-17T12:28:31.137Z,99.90
2023-05-17T12:30:58.742Z,99.90
2023-05-17T12:33:25.981Z,99.90
2023-05-17T12:35:52.671Z,99.90
2023-05-17T12:38:19.548Z,99.90
2023-05-17T12:40:46.184Z,99.90
2023-05-17T12:43:13.020Z,99.90
2023-05-17T12:45:41.934Z,99.90
2023-05-17T12:48:08.720Z,99.90
2023-05-17T12:50:35.452Z,99.90
2023-05-17T12:53:08.220Z,99.90
2023-05-17T12:55:36.932Z,99.90
2023-05-17T12:58:04.522Z,99.90
2023-05-17T13:00:31.558Z,99.90
2023-05-17T13:02:58.511Z,99.90
2023-05-17T13:05:25.524Z,99.90
2023-05-17T13:07:52.183Z,99.90
2023-05-17T13:10:29.563Z,99.90
2023-05-17T13:12:59.618Z,99.90
2023-05-17T13:15:35.349Z,99.90
2023-05-17T13:18:04.859Z,99.90
2023-05-17T13:20:31.640Z,99.90
2023-05-17T13:22:58.422Z,99.90
2023-05-17T13:25:25.178Z,99.90
2023-05-17T13:27:53.054Z,99.90
2023-05-17T13:30:19.768Z,99.90
2023-05-17T13:32:47.453Z,99.90
2023-05-17T13:35:14.301Z,99.90
2023-05-17T13:37:40.961Z,99.90
2023-05-17T13:40:08.668Z,99.90
2023-05-17T13:42:35.508Z,99.90
2023-05-17T13:45:02.386Z,99.90
2023-05-17T13:47:30.287Z,99.90
2023-05-17T13:49:57.132Z,99.90
2023-05-17T13:52:25.227Z,99.90
2023-05-17T13:54:52.149Z,99.90
2023-05-17T13:57:18.854Z,99.90
2023-05-17T13:59:46.027Z,99.90
2023-05-17T14:02:12.736Z,99.90
2023-05-17T14:04:39.570Z,99.90
2023-05-17T14:07:06.244Z,99.90
2023-05-17T14:09:34.540Z,99.90
2023-05-17T14:12:01.596Z,99.90
2023-05-17T14:14:28.896Z,99.90
2023-05-17T14:16:55.594Z,99.90
2023-05-17T14:19:22.364Z,99.90
2023-05-17T14:21:50.273Z,99.90
2023-05-17T14:24:16.915Z,99.90
2023-05-17T14:26:44.178Z,99.90
2023-05-17T14:29:10.905Z,99.90
2023-05-17T14:31:37.618Z,99.90
2023-05-17T14:34:04.353Z,99.90
2023-05-17T14:36:31.960Z,99.90
2023-05-17T14:38:59.351Z,99.90
2023-05-17T14:41:26.531Z,99.90
2023-05-17T14:43:53.230Z,99.90
2023-05-17T14:46:20.038Z,99.90
2023-05-17T14:48:47.203Z,99.90
2023-05-17T14:51:13.948Z,99.90
2023-05-17T14:53:40.600Z,99.90
2023-05-17T14:56:07.718Z,99.90
2023-05-17T14:58:34.480Z,99.90
2023-05-17T15:01:05.530Z,99.90
2023-05-17T15:03:33.088Z,99.90
2023-05-17T15:06:00.626Z,99.90
2023-05-17T15:08:28.009Z,99.90
2023-05-17T15:10:54.669Z,99.90
2023-05-17T15:13:22.358Z,99.90
2023-05-17T15:15:49.502Z,99.90
2023-05-17T15:18:16.224Z,99.90
2023-05-17T15:20:43.020Z,99.90
2023-05-17T15:23:09.698Z,99.90
2023-05-17T15:25:36.663Z,99.90
2023-05-17T15:28:03.366Z,99.90
2023-05-17T15:30:30.131Z,99.90
2023-05-17T15:32:58.353Z,99.90
2023-05-17T15:35:25.595Z,99.90
2023-05-17T15:37:53.330Z,99.90
2023-05-17T15:40:21.664Z,99.90
2023-05-17T15:42:48.330Z,99.90
2023-05-17T15:45:15.039Z,99.90
2023-05-17T15:47:43.602Z,99.90
2023-05-17T15:50:11.953Z,99.90
2023-05-17T15:52:39.152Z,99.90
2023-05-17T15:55:06.529Z,99.90
2023-05-17T15:57:33.181Z,99.90
2023-05-17T15:59:59.837Z,99.90
2023-05-17T16:02:26.600Z,99.90
2023-05-17T16:04:53.293Z,99.90
2023-05-17T16:07:20.057Z,99.90
2023-05-17T16:09:46.776Z,99.90
2023-05-17T16:12:13.426Z,99.90
2023-05-17T16:14:40.820Z,99.90
2023-05-17T16:17:07.614Z,99.90
2023-05-17T16:19:34.610Z,99.90
2023-05-17T16:22:01.469Z,99.90
2023-05-17T16:24:28.162Z,99.90
2023-05-17T16:26:54.919Z,99.90
2023-05-17T16:29:21.595Z,99.90
2023-05-17T16:31:48.606Z,99.90
2023-05-17T16:34:15.481Z,99.90
2023-05-17T16:36:42.404Z,99.90
2023-05-17T16:39:09.428Z,99.90
2023-05-17T16:41:36.234Z,99.90
2023-05-17T16:44:02.945Z,99.90
2023-05-17T16:46:29.666Z,99.90
2023-05-17T16:48:56.428Z,99.90
2023-05-17T16:51:23.110Z,99.90
2023-05-17T16:53:50.027Z,99.90
2023-05-17T16:56:16.803Z,99.90
2023-05-17T16:58:43.510Z,99.90
2023-05-17T17:01:10.196Z,99.90
2023-05-17T17:03:36.902Z,99.90
2023-05-17T17:06:03.688Z,99.90
2023-05-17T17:08:30.485Z,99.90
2023-05-17T17:10:57.213Z,99.90
2023-05-17T17:13:23.859Z,99.90
2023-05-17T17:15:51.500Z,99.90
2023-05-17T17:18:19.532Z,99.90
2023-05-17T17:20:46.395Z,99.90
2023-05-17T17:23:13.103Z,99.90
2023-05-17T17:25:39.754Z,99.90
2023-05-17T17:28:06.598Z,99.90
2023-05-17T17:30:33.366Z,99.90
2023-05-17T17:33:00.361Z,99.90
2023-05-17T17:35:27.206Z,99.90
2023-05-17T17:37:55.042Z,99.90
2023-05-17T17:40:21.853Z,99.90
2023-05-17T17:42:48.554Z,99.90
2023-05-17T17:45:15.337Z,99.90
2023-05-17T17:47:42.391Z,99.90
2023-05-17T17:50:09.369Z,99.90
2023-05-17T17:52:37.248Z,99.90
2023-05-17T17:55:04.338Z,99.90
2023-05-17T17:57:32.080Z,99.90
2023-05-17T17:59:58.879Z,99.90
2023-05-17T18:02:25.686Z,99.90
2023-05-17T18:04:52.474Z,99.90
2023-05-17T18:07:19.231Z,99.90
2023-05-17T18:09:45.966Z,99.90
2023-05-17T18:12:12.635Z,99.90
2023-05-17T18:14:39.666Z,99.90
2023-05-17T18:17:08.137Z,99.90
2023-05-17T18:19:34.826Z,99.90
2023-05-17T18:22:01.972Z,99.90
2023-05-17T18:24:28.881Z,99.90
2023-05-17T18:26:55.602Z,99.90
2023-05-17T18:29:22.285Z,99.90
2023-05-17T18:31:49.221Z,99.90
2023-05-17T18:34:16.027Z,99.90
2023-05-17T18:36:42.720Z,99.90
2023-05-17T18:39:09.459Z,99.90
2023-05-17T18:41:36.147Z,99.90
2023-05-17T18:44:02.883Z,99.90
2023-05-17T18:46:29.648Z,99.90
2023-05-17T18:48:56.400Z,99.90
2023-05-17T18:51:24.726Z,99.90
2023-05-17T18:53:51.416Z,99.90
2023-05-17T18:56:22.680Z,99.90
2023-05-17T18:58:53.050Z,99.90
2023-05-17T19:01:19.964Z,99.90
2023-05-17T19:03:47.535Z,99.90
2023-05-17T19:06:14.237Z,99.90
2023-05-17T19:08:41.073Z,99.90
2023-05-17T19:11:08.105Z,99.90
2023-05-17T19:13:34.764Z,99.90
2023-05-17T19:16:02.929Z,99.90
2023-05-17T19:18:30.716Z,99.90
2023-05-17T19:20:57.392Z,99.90
2023-05-17T19:23:24.087Z,99.90
2023-05-17T19:25:51.501Z,99.90
2023-05-17T19:28:18.237Z,99.90
2023-05-17T19:30:44.897Z,99.90
2023-05-17T19:33:11.987Z,99.90
2023-05-17T19:35:40.290Z,99.90
2023-05-17T19:38:07.262Z,99.90
2023-05-17T19:40:34.258Z,99.90
2023-05-17T19:43:04.073Z,99.90
2023-05-17T19:45:30.756Z,99.90
2023-05-17T19:47:57.423Z,99.90
2023-05-17T19:50:24.461Z,99.90
2023-05-17T19:52:51.232Z,99.90
2023-05-17T19:55:22.092Z,99.90
2023-05-17T19:57:49.078Z,99.90
2023-05-17T20:00:15.977Z,99.90
2023-05-17T20:02:42.714Z,99.90
2023-05-17T20:05:09.646Z,99.90
2023-05-17T20:07:36.434Z,99.90
2023-05-17T20:10:03.468Z,99.90
2023-05-17T20:12:30.357Z,99.90
2023-05-17T20:14:57.018Z,99.90
2023-05-17T20:17:23.916Z,99.90
2023-05-17T20:19:50.997Z,99.90
2023-05-17T20:22:17.663Z,99.90
2023-05-17T20:24:44.632Z,99.90
2023-05-17T20:27:11.484Z,99.90
2023-05-17T20:29:38.468Z,99.90
2023-05-17T20:32:05.813Z,99.90
2023-05-17T20:34:33.408Z,99.90
2023-05-17T20:37:00.998Z,99.90
2023-05-17T20:39:31.051Z,99.90
2023-05-17T20:41:58.228Z,99.90
2023-05-17T20:44:25.848Z,99.90
2023-05-17T20:46:52.661Z,99.90
2023-05-17T20:49:19.345Z,99.90
2023-05-17T20:51:46.160Z,99.90
2023-05-17T20:54:12.877Z,99.90
2023-05-17T20:56:40.101Z,99.90
2023-05-17T20:59:07.049Z,99.90
2023-05-17T21:01:34.047Z,99.90
2023-05-17T21:04:01.385Z,99.90
2023-05-17T21:06:30.234Z,99.90
2023-05-17T21:09:02.141Z,99.90
2023-05-17T21:11:29.520Z,99.90
2023-05-17T21:13:57.861Z,99.90
2023-05-17T21:16:24.576Z,99.90
2023-05-17T21:18:51.382Z,99.90
2023-05-17T21:21:18.140Z,99.90
2023-05-17T21:23:44.844Z,99.90
2023-05-17T21:26:11.592Z,99.90
2023-05-17T21:28:38.278Z,99.90
2023-05-17T21:31:05.090Z,99.90
2023-05-17T21:33:32.782Z,99.90
2023-05-17T21:35:59.402Z,99.90
2023-05-17T21:38:26.222Z,99.90
2023-05-17T21:40:53.195Z,99.90
2023-05-17T21:43:19.866Z,99.90
2023-05-17T21:45:46.542Z,99.90
2023-05-17T21:48:13.350Z,99.90
2023-05-17T21:50:40.014Z,99.90
2023-05-17T21:53:06.663Z,99.90
2023-05-17T21:55:41.246Z,99.90
2023-05-17T21:58:21.238Z,99.90
2023-05-17T22:00:47.940Z,99.90
2023-05-17T22:03:14.773Z,99.90
2023-05-17T22:05:41.638Z,99.90
2023-05-17T22:08:08.300Z,99.90
2023-05-17T22:10:34.950Z,99.90
2023-05-17T22:13:02.233Z,99.90
2023-05-17T22:15:29.093Z,99.90
2023-05-17T22:17:55.807Z,99.90
2023-05-17T22:20:23.649Z,99.90
2023-05-17T22:22:50.686Z,99.90
2023-05-17T22:25:17.803Z,1.00
2023-05-17T22:27:45.351Z,99.90
2023-05-17T22:30:12.239Z,99.90
2023-05-17T22:32:40.163Z,99.90
2023-05-17T22:35:07.199Z,99.90
2023-05-17T22:37:33.918Z,99.90
2023-05-17T22:40:00.677Z,99.90
2023-05-17T22:42:27.375Z,99.90
2023-05-17T22:44:55.078Z,99.90
2023-05-17T22:47:23.259Z,99.90
2023-05-17T22:49:52.504Z,99.90
2023-05-17T22:52:19.776Z,1.40
2023-05-17T22:54:46.440Z,1.40
2023-05-17T22:57:13.110Z,1.00
2023-05-17T22:59:39.917Z,99.90
2023-05-17T23:02:06.774Z,1.00
2023-05-17T23:04:33.480Z,99.90
2023-05-17T23:07:02.119Z,99.90
2023-05-17T23:09:33.397Z,99.90
2023-05-17T23:12:06.335Z,99.90
2023-05-17T23:14:34.073Z,1.40
2023-05-17T23:17:02.088Z,1.00
2023-05-17T23:19:29.752Z,1.00
2023-05-17T23:21:56.695Z,1.00
2023-05-17T23:24:25.809Z,1.00
2023-05-17T23:26:52.830Z,1.00
2023-05-17T23:29:20.027Z,1.00
2023-05-17T23:31:48.131Z,1.00
2023-05-17T23:34:15.308Z,1.00
2023-05-17T23:36:42.030Z,1.00
2023-05-17T23:39:08.940Z,1.00
2023-05-17T23:41:37.706Z,1.00
2023-05-17T23:44:04.972Z,1.00
2023-05-17T23:46:31.664Z,1.00
2023-05-17T23:48:58.409Z,1.00
2023-05-17T23:51:25.055Z,1.00
2023-05-17T23:53:51.703Z,1.00
2023-05-17T23:56:18.654Z,1.00
2023-05-17T23:58:45.889Z,1.00
